sensor_id;sensor_type;location;lat;lon;timestamp;temperature;humidity
16154;DHT22;8182;55.648;13.208;2024-02-26T00:02:15;3.60;1.00
16154;DHT22;8182;55.648;13.208;2024-02-26T00:04:45;3.70;1.00
16154;DHT22;8182;55.648;13.208;2024-02-26T00:07:15;3.70;1.00
16154;DHT22;8182;55.648;13.208;2024-02-26T00:09:44;3.90;1.00
16154;DHT22;8182;55.648;13.208;2024-02-26T00:12:11;3.90;1.00
16154;DHT22;8182;55.648;13.208;2024-02-26T00:14:40;4.00;1.00
16154;DHT22;8182;55.648;13.208;2024-02-26T00:17:08;3.90;1.00
16154;DHT22;8182;55.648;13.208;2024-02-26T00:19:35;3.80;1.00
16154;DHT22;8182;55.648;13.208;2024-02-26T00:22:02;3.70;1.00
16154;DHT22;8182;55.648;13.208;2024-02-26T00:24:29;3.40;1.00
16154;DHT22;8182;55.648;13.208;2024-02-26T00:26:56;3.30;1.00
16154;DHT22;8182;55.648;13.208;2024-02-26T00:29:23;3.30;1.00
16154;DHT22;8182;55.648;13.208;2024-02-26T00:31:51;3.20;1.00
16154;DHT22;8182;55.648;13.208;2024-02-26T00:34:18;3.20;1.00
16154;DHT22;8182;55.648;13.208;2024-02-26T00:36:45;3.30;1.00
16154;DHT22;8182;55.648;13.208;2024-02-26T00:39:12;3.30;1.00
16154;DHT22;8182;55.648;13.208;2024-02-26T00:41:40;3.20;1.00
16154;DHT22;8182;55.648;13.208;2024-02-26T00:44:07;3.10;1.00
16154;DHT22;8182;55.648;13.208;2024-02-26T00:46:34;3.10;1.00
16154;DHT22;8182;55.648;13.208;2024-02-26T00:49:02;3.10;1.00
16154;DHT22;8182;55.648;13.208;2024-02-26T00:51:29;3.10;1.00
16154;DHT22;8182;55.648;13.208;2024-02-26T00:53:56;3.20;1.00
16154;DHT22;8182;55.648;13.208;2024-02-26T00:56:28;3.30;1.00
16154;DHT22;8182;55.648;13.208;2024-02-26T00:58:58;3.30;1.00
16154;DHT22;8182;55.648;13.208;2024-02-26T01:01:25;3.20;1.00
16154;DHT22;8182;55.648;13.208;2024-02-26T01:03:52;3.20;1.00
16154;DHT22;8182;55.648;13.208;2024-02-26T01:06:20;3.20;1.00
16154;DHT22;8182;55.648;13.208;2024-02-26T01:08:52;3.30;1.00
16154;DHT22;8182;55.648;13.208;2024-02-26T01:11:19;3.30;1.00
16154;DHT22;8182;55.648;13.208;2024-02-26T01:13:45;3.20;1.00
16154;DHT22;8182;55.648;13.208;2024-02-26T01:16:13;3.20;1.00
16154;DHT22;8182;55.648;13.208;2024-02-26T01:18:40;3.10;1.00
16154;DHT22;8182;55.648;13.208;2024-02-26T01:21:06;2.90;1.00
16154;DHT22;8182;55.648;13.208;2024-02-26T01:23:35;2.80;1.00
16154;DHT22;8182;55.648;13.208;2024-02-26T01:26:02;2.90;1.00
16154;DHT22;8182;55.648;13.208;2024-02-26T01:28:33;2.90;1.00
16154;DHT22;8182;55.648;13.208;2024-02-26T01:31:02;2.90;1.00
16154;DHT22;8182;55.648;13.208;2024-02-26T01:33:30;3.20;1.00
16154;DHT22;8182;55.648;13.208;2024-02-26T01:35:57;3.20;1.00
16154;DHT22;8182;55.648;13.208;2024-02-26T01:38:26;2.90;1.00
16154;DHT22;8182;55.648;13.208;2024-02-26T01:40:54;2.60;1.00
16154;DHT22;8182;55.648;13.208;2024-02-26T01:43:21;2.50;1.00
16154;DHT22;8182;55.648;13.208;2024-02-26T01:45:48;2.50;1.00
16154;DHT22;8182;55.648;13.208;2024-02-26T01:48:15;2.60;1.00
16154;DHT22;8182;55.648;13.208;2024-02-26T01:50:42;2.50;1.00
16154;DHT22;8182;55.648;13.208;2024-02-26T01:53:10;2.70;1.00
16154;DHT22;8182;55.648;13.208;2024-02-26T01:55:37;2.60;1.00
16154;DHT22;8182;55.648;13.208;2024-02-26T01:58:05;2.50;1.00
16154;DHT22;8182;55.648;13.208;2024-02-26T02:00:32;2.60;1.00
16154;DHT22;8182;55.648;13.208;2024-02-26T02:02:59;2.60;1.00
16154;DHT22;8182;55.648;13.208;2024-02-26T02:05:27;2.40;1.00
16154;DHT22;8182;55.648;13.208;2024-02-26T02:07:54;2.50;1.00
16154;DHT22;8182;55.648;13.208;2024-02-26T02:10:26;2.60;1.00
16154;DHT22;8182;55.648;13.208;2024-02-26T02:12:53;2.60;1.00
16154;DHT22;8182;55.648;13.208;2024-02-26T02:15:21;2.70;1.00
16154;DHT22;8182;55.648;13.208;2024-02-26T02:17:48;2.50;1.00
16154;DHT22;8182;55.648;13.208;2024-02-26T02:20:16;2.50;1.00
16154;DHT22;8182;55.648;13.208;2024-02-26T02:22:45;2.20;1.00
16154;DHT22;8182;55.648;13.208;2024-02-26T02:25:14;2.10;1.00
16154;DHT22;8182;55.648;13.208;2024-02-26T02:27:42;2.10;1.00
16154;DHT22;8182;55.648;13.208;2024-02-26T02:30:11;2.30;1.00
16154;DHT22;8182;55.648;13.208;2024-02-26T02:32:44;2.00;1.00
16154;DHT22;8182;55.648;13.208;2024-02-26T02:35:11;1.90;1.00
16154;DHT22;8182;55.648;13.208;2024-02-26T02:37:45;2.20;1.00
16154;DHT22;8182;55.648;13.208;2024-02-26T02:40:15;2.40;1.00
16154;DHT22;8182;55.648;13.208;2024-02-26T02:42:45;2.60;1.00
16154;DHT22;8182;55.648;13.208;2024-02-26T02:45:12;2.40;1.00
16154;DHT22;8182;55.648;13.208;2024-02-26T02:47:45;2.10;1.00
16154;DHT22;8182;55.648;13.208;2024-02-26T02:50:15;2.20;1.00
16154;DHT22;8182;55.648;13.208;2024-02-26T02:52:46;2.10;1.00
16154;DHT22;8182;55.648;13.208;2024-02-26T02:55:13;1.70;1.00
16154;DHT22;8182;55.648;13.208;2024-02-26T02:57:40;1.50;1.00
16154;DHT22;8182;55.648;13.208;2024-02-26T03:00:09;1.50;1.00
16154;DHT22;8182;55.648;13.208;2024-02-26T03:02:36;1.60;1.00
16154;DHT22;8182;55.648;13.208;2024-02-26T03:05:03;1.90;1.00
16154;DHT22;8182;55.648;13.208;2024-02-26T03:07:30;1.80;1.00
16154;DHT22;8182;55.648;13.208;2024-02-26T03:09:58;1.80;1.00
16154;DHT22;8182;55.648;13.208;2024-02-26T03:12:25;1.70;1.00
16154;DHT22;8182;55.648;13.208;2024-02-26T03:14:53;1.60;1.00
16154;DHT22;8182;55.648;13.208;2024-02-26T03:17:20;1.80;1.00
16154;DHT22;8182;55.648;13.208;2024-02-26T03:19:49;1.80;1.00
16154;DHT22;8182;55.648;13.208;2024-02-26T03:22:19;1.60;1.00
16154;DHT22;8182;55.648;13.208;2024-02-26T03:24:46;1.60;1.00
16154;DHT22;8182;55.648;13.208;2024-02-26T03:27:14;1.80;1.00
16154;DHT22;8182;55.648;13.208;2024-02-26T03:29:41;1.80;1.00
16154;DHT22;8182;55.648;13.208;2024-02-26T03:32:08;1.70;1.00
16154;DHT22;8182;55.648;13.208;2024-02-26T03:34:35;1.70;1.00
16154;DHT22;8182;55.648;13.208;2024-02-26T03:37:06;1.70;1.00
16154;DHT22;8182;55.648;13.208;2024-02-26T03:39:36;1.60;1.00
16154;DHT22;8182;55.648;13.208;2024-02-26T03:42:03;1.50;1.00
16154;DHT22;8182;55.648;13.208;2024-02-26T03:44:32;1.60;1.00
16154;DHT22;8182;55.648;13.208;2024-02-26T03:46:59;1.70;1.00
16154;DHT22;8182;55.648;13.208;2024-02-26T03:49:25;1.80;1.00
16154;DHT22;8182;55.648;13.208;2024-02-26T03:51:52;1.40;1.00
16154;DHT22;8182;55.648;13.208;2024-02-26T03:54:19;1.20;1.00
16154;DHT22;8182;55.648;13.208;2024-02-26T03:56:46;1.20;1.00
16154;DHT22;8182;55.648;13.208;2024-02-26T03:59:13;1.10;1.00
16154;DHT22;8182;55.648;13.208;2024-02-26T04:01:45;1.10;1.00
16154;DHT22;8182;55.648;13.208;2024-02-26T04:04:14;1.30;1.00
16154;DHT22;8182;55.648;13.208;2024-02-26T04:06:44;1.50;1.00
16154;DHT22;8182;55.648;13.208;2024-02-26T04:09:11;1.50;1.00
16154;DHT22;8182;55.648;13.208;2024-02-26T04:11:38;1.30;1.00
16154;DHT22;8182;55.648;13.208;2024-02-26T04:14:05;1.10;1.00
16154;DHT22;8182;55.648;13.208;2024-02-26T04:16:34;1.10;1.00
16154;DHT22;8182;55.648;13.208;2024-02-26T04:19:02;1.10;1.00
16154;DHT22;8182;55.648;13.208;2024-02-26T04:21:29;1.40;1.00
16154;DHT22;8182;55.648;13.208;2024-02-26T04:23:56;1.70;1.00
16154;DHT22;8182;55.648;13.208;2024-02-26T04:26:26;1.60;1.00
16154;DHT22;8182;55.648;13.208;2024-02-26T04:28:53;1.50;1.00
16154;DHT22;8182;55.648;13.208;2024-02-26T04:31:20;1.40;1.00
16154;DHT22;8182;55.648;13.208;2024-02-26T04:33:47;1.50;1.00
16154;DHT22;8182;55.648;13.208;2024-02-26T04:36:15;1.70;1.00
16154;DHT22;8182;55.648;13.208;2024-02-26T04:38:42;1.80;1.00
16154;DHT22;8182;55.648;13.208;2024-02-26T04:41:10;1.80;1.00
16154;DHT22;8182;55.648;13.208;2024-02-26T04:43:37;1.60;1.00
16154;DHT22;8182;55.648;13.208;2024-02-26T04:46:07;1.70;1.00
16154;DHT22;8182;55.648;13.208;2024-02-26T04:48:34;1.90;1.00
16154;DHT22;8182;55.648;13.208;2024-02-26T04:51:07;2.00;1.00
16154;DHT22;8182;55.648;13.208;2024-02-26T04:53:35;2.20;1.00
16154;DHT22;8182;55.648;13.208;2024-02-26T04:56:03;2.20;1.00
16154;DHT22;8182;55.648;13.208;2024-02-26T04:58:30;2.30;1.00
16154;DHT22;8182;55.648;13.208;2024-02-26T05:00:57;2.30;1.00
16154;DHT22;8182;55.648;13.208;2024-02-26T05:03:24;2.20;1.00
16154;DHT22;8182;55.648;13.208;2024-02-26T05:05:54;2.10;1.00
16154;DHT22;8182;55.648;13.208;2024-02-26T05:08:22;1.90;1.00
16154;DHT22;8182;55.648;13.208;2024-02-26T05:10:53;1.80;1.00
16154;DHT22;8182;55.648;13.208;2024-02-26T05:13:20;1.80;1.00
16154;DHT22;8182;55.648;13.208;2024-02-26T05:15:47;1.80;1.00
16154;DHT22;8182;55.648;13.208;2024-02-26T05:18:19;1.90;1.00
16154;DHT22;8182;55.648;13.208;2024-02-26T05:20:46;2.10;1.00
16154;DHT22;8182;55.648;13.208;2024-02-26T05:23:15;2.00;1.00
16154;DHT22;8182;55.648;13.208;2024-02-26T05:25:45;1.90;1.00
16154;DHT22;8182;55.648;13.208;2024-02-26T05:28:15;2.10;1.00
16154;DHT22;8182;55.648;13.208;2024-02-26T05:30:44;2.10;1.00
16154;DHT22;8182;55.648;13.208;2024-02-26T05:33:10;2.10;1.00
16154;DHT22;8182;55.648;13.208;2024-02-26T05:35:40;2.30;1.00
16154;DHT22;8182;55.648;13.208;2024-02-26T05:38:07;2.20;1.00
16154;DHT22;8182;55.648;13.208;2024-02-26T05:40:33;2.00;1.00
16154;DHT22;8182;55.648;13.208;2024-02-26T05:43:02;1.90;1.00
16154;DHT22;8182;55.648;13.208;2024-02-26T05:45:31;2.00;1.00
16154;DHT22;8182;55.648;13.208;2024-02-26T05:47:58;2.10;1.00
16154;DHT22;8182;55.648;13.208;2024-02-26T05:50:25;2.20;1.00
16154;DHT22;8182;55.648;13.208;2024-02-26T05:52:52;2.10;1.00
16154;DHT22;8182;55.648;13.208;2024-02-26T05:55:19;2.10;1.00
16154;DHT22;8182;55.648;13.208;2024-02-26T05:57:46;2.30;1.00
16154;DHT22;8182;55.648;13.208;2024-02-26T06:00:15;2.40;1.00
16154;DHT22;8182;55.648;13.208;2024-02-26T06:02:43;2.40;1.00
16154;DHT22;8182;55.648;13.208;2024-02-26T06:05:10;2.10;1.00
16154;DHT22;8182;55.648;13.208;2024-02-26T06:07:37;1.90;1.00
16154;DHT22;8182;55.648;13.208;2024-02-26T06:10:05;2.00;1.00
16154;DHT22;8182;55.648;13.208;2024-02-26T06:12:34;2.10;1.00
16154;DHT22;8182;55.648;13.208;2024-02-26T06:15:01;2.10;1.00
16154;DHT22;8182;55.648;13.208;2024-02-26T06:17:28;2.10;1.00
16154;DHT22;8182;55.648;13.208;2024-02-26T06:19:56;2.00;1.00
16154;DHT22;8182;55.648;13.208;2024-02-26T06:22:27;1.90;1.00
16154;DHT22;8182;55.648;13.208;2024-02-26T06:24:54;1.90;1.00
16154;DHT22;8182;55.648;13.208;2024-02-26T06:27:23;1.80;1.00
16154;DHT22;8182;55.648;13.208;2024-02-26T06:29:50;1.80;1.00
16154;DHT22;8182;55.648;13.208;2024-02-26T06:32:17;2.10;1.00
16154;DHT22;8182;55.648;13.208;2024-02-26T06:34:44;2.30;1.00
16154;DHT22;8182;55.648;13.208;2024-02-26T06:37:15;2.20;1.00
16154;DHT22;8182;55.648;13.208;2024-02-26T06:39:45;2.30;1.00
16154;DHT22;8182;55.648;13.208;2024-02-26T06:42:12;2.30;1.00
16154;DHT22;8182;55.648;13.208;2024-02-26T06:44:38;2.30;1.00
16154;DHT22;8182;55.648;13.208;2024-02-26T06:47:05;2.40;1.00
16154;DHT22;8182;55.648;13.208;2024-02-26T06:49:32;2.40;1.00
16154;DHT22;8182;55.648;13.208;2024-02-26T06:51:59;2.50;1.00
16154;DHT22;8182;55.648;13.208;2024-02-26T06:54:27;2.60;1.00
16154;DHT22;8182;55.648;13.208;2024-02-26T06:56:54;2.50;1.00
16154;DHT22;8182;55.648;13.208;2024-02-26T06:59:21;2.50;1.00
16154;DHT22;8182;55.648;13.208;2024-02-26T07:01:49;2.50;1.00
16154;DHT22;8182;55.648;13.208;2024-02-26T07:04:16;2.60;1.00
16154;DHT22;8182;55.648;13.208;2024-02-26T07:06:46;2.80;1.00
16154;DHT22;8182;55.648;13.208;2024-02-26T07:09:15;2.70;1.00
16154;DHT22;8182;55.648;13.208;2024-02-26T07:11:45;2.90;1.00
16154;DHT22;8182;55.648;13.208;2024-02-26T07:14:15;3.00;1.00
16154;DHT22;8182;55.648;13.208;2024-02-26T07:16:45;3.10;1.00
16154;DHT22;8182;55.648;13.208;2024-02-26T07:19:15;3.10;1.00
16154;DHT22;8182;55.648;13.208;2024-02-26T07:21:44;3.00;1.00
16154;DHT22;8182;55.648;13.208;2024-02-26T07:24:11;2.90;1.00
16154;DHT22;8182;55.648;13.208;2024-02-26T07:26:38;2.90;1.00
16154;DHT22;8182;55.648;13.208;2024-02-26T07:29:10;2.90;1.00
16154;DHT22;8182;55.648;13.208;2024-02-26T07:31:37;2.80;1.00
16154;DHT22;8182;55.648;13.208;2024-02-26T07:34:03;2.90;1.00
16154;DHT22;8182;55.648;13.208;2024-02-26T07:36:30;2.90;1.00
16154;DHT22;8182;55.648;13.208;2024-02-26T07:38:57;2.90;1.00
16154;DHT22;8182;55.648;13.208;2024-02-26T07:41:28;3.00;1.00
16154;DHT22;8182;55.648;13.208;2024-02-26T07:43:55;3.20;1.00
16154;DHT22;8182;55.648;13.208;2024-02-26T07:46:23;3.30;1.00
16154;DHT22;8182;55.648;13.208;2024-02-26T07:48:50;3.40;1.00
16154;DHT22;8182;55.648;13.208;2024-02-26T07:51:17;3.40;1.00
16154;DHT22;8182;55.648;13.208;2024-02-26T07:53:44;3.50;1.00
16154;DHT22;8182;55.648;13.208;2024-02-26T07:56:11;3.70;1.00
16154;DHT22;8182;55.648;13.208;2024-02-26T07:58:38;3.80;1.00
16154;DHT22;8182;55.648;13.208;2024-02-26T08:01:05;3.80;1.00
16154;DHT22;8182;55.648;13.208;2024-02-26T08:03:34;3.90;1.00
16154;DHT22;8182;55.648;13.208;2024-02-26T08:06:01;4.00;1.00
16154;DHT22;8182;55.648;13.208;2024-02-26T08:08:28;4.20;1.00
16154;DHT22;8182;55.648;13.208;2024-02-26T08:10:54;4.20;1.00
16154;DHT22;8182;55.648;13.208;2024-02-26T08:13:24;4.20;1.00
16154;DHT22;8182;55.648;13.208;2024-02-26T08:15:52;4.30;1.00
16154;DHT22;8182;55.648;13.208;2024-02-26T08:18:19;5.50;1.00
16154;DHT22;8182;55.648;13.208;2024-02-26T08:20:48;5.40;1.00
16154;DHT22;8182;55.648;13.208;2024-02-26T08:23:15;5.50;1.00
16154;DHT22;8182;55.648;13.208;2024-02-26T08:25:45;6.10;1.00
16154;DHT22;8182;55.648;13.208;2024-02-26T08:28:14;5.90;1.00
16154;DHT22;8182;55.648;13.208;2024-02-26T08:30:46;5.70;1.00
16154;DHT22;8182;55.648;13.208;2024-02-26T08:33:13;5.50;1.00
16154;DHT22;8182;55.648;13.208;2024-02-26T08:35:40;5.40;1.00
16154;DHT22;8182;55.648;13.208;2024-02-26T08:38:10;5.60;1.00
16154;DHT22;8182;55.648;13.208;2024-02-26T08:40:37;6.10;1.00
16154;DHT22;8182;55.648;13.208;2024-02-26T08:43:04;7.00;1.00
16154;DHT22;8182;55.648;13.208;2024-02-26T08:45:31;7.50;1.00
16154;DHT22;8182;55.648;13.208;2024-02-26T08:47:58;7.30;1.00
16154;DHT22;8182;55.648;13.208;2024-02-26T08:50:27;6.70;1.00
16154;DHT22;8182;55.648;13.208;2024-02-26T08:52:54;7.00;1.00
16154;DHT22;8182;55.648;13.208;2024-02-26T08:55:27;7.40;1.00
16154;DHT22;8182;55.648;13.208;2024-02-26T08:57:54;9.20;1.00
16154;DHT22;8182;55.648;13.208;2024-02-26T09:00:21;8.30;1.00
16154;DHT22;8182;55.648;13.208;2024-02-26T09:02:48;7.80;1.00
16154;DHT22;8182;55.648;13.208;2024-02-26T09:05:15;7.90;1.00
16154;DHT22;8182;55.648;13.208;2024-02-26T09:07:44;7.40;1.00
16154;DHT22;8182;55.648;13.208;2024-02-26T09:10:15;7.30;1.00
16154;DHT22;8182;55.648;13.208;2024-02-26T09:12:46;8.40;1.00
16154;DHT22;8182;55.648;13.208;2024-02-26T09:15:13;8.50;1.00
16154;DHT22;8182;55.648;13.208;2024-02-26T09:17:40;8.70;1.00
16154;DHT22;8182;55.648;13.208;2024-02-26T09:20:09;8.80;1.00
16154;DHT22;8182;55.648;13.208;2024-02-26T09:22:36;8.30;1.00
16154;DHT22;8182;55.648;13.208;2024-02-26T09:25:05;7.90;1.00
16154;DHT22;8182;55.648;13.208;2024-02-26T09:27:34;7.50;1.00
16154;DHT22;8182;55.648;13.208;2024-02-26T09:30:03;7.20;1.00
16154;DHT22;8182;55.648;13.208;2024-02-26T09:32:31;7.00;1.00
16154;DHT22;8182;55.648;13.208;2024-02-26T09:34:58;6.80;1.00
16154;DHT22;8182;55.648;13.208;2024-02-26T09:37:25;6.80;1.00
16154;DHT22;8182;55.648;13.208;2024-02-26T09:39:52;6.80;1.00
16154;DHT22;8182;55.648;13.208;2024-02-26T09:42:19;6.90;1.00
16154;DHT22;8182;55.648;13.208;2024-02-26T09:44:46;6.80;1.00
16154;DHT22;8182;55.648;13.208;2024-02-26T09:47:17;6.70;1.00
16154;DHT22;8182;55.648;13.208;2024-02-26T09:49:46;6.90;1.00
16154;DHT22;8182;55.648;13.208;2024-02-26T09:52:15;7.10;1.00
16154;DHT22;8182;55.648;13.208;2024-02-26T09:54:47;7.30;1.00
16154;DHT22;8182;55.648;13.208;2024-02-26T09:57:15;8.10;1.00
16154;DHT22;8182;55.648;13.208;2024-02-26T09:59:47;8.00;1.00
16154;DHT22;8182;55.648;13.208;2024-02-26T10:02:18;7.80;1.00
16154;DHT22;8182;55.648;13.208;2024-02-26T10:04:47;7.40;1.00
16154;DHT22;8182;55.648;13.208;2024-02-26T10:07:16;7.30;1.00
16154;DHT22;8182;55.648;13.208;2024-02-26T10:09:43;7.30;1.00
16154;DHT22;8182;55.648;13.208;2024-02-26T10:12:11;7.50;1.00
16154;DHT22;8182;55.648;13.208;2024-02-26T10:14:41;7.80;1.00
16154;DHT22;8182;55.648;13.208;2024-02-26T10:17:10;10.10;1.00
16154;DHT22;8182;55.648;13.208;2024-02-26T10:19:44;9.40;1.00
16154;DHT22;8182;55.648;13.208;2024-02-26T10:22:14;9.00;1.00
16154;DHT22;8182;55.648;13.208;2024-02-26T10:24:41;9.10;1.00
16154;DHT22;8182;55.648;13.208;2024-02-26T10:27:10;9.60;1.00
16154;DHT22;8182;55.648;13.208;2024-02-26T10:29:37;10.10;1.00
16154;DHT22;8182;55.648;13.208;2024-02-26T10:32:05;11.10;1.00
16154;DHT22;8182;55.648;13.208;2024-02-26T10:34:32;10.60;1.00
16154;DHT22;8182;55.648;13.208;2024-02-26T10:37:03;10.10;1.00
16154;DHT22;8182;55.648;13.208;2024-02-26T10:39:30;13.60;1.00
16154;DHT22;8182;55.648;13.208;2024-02-26T10:41:56;16.00;1.00
16154;DHT22;8182;55.648;13.208;2024-02-26T10:44:26;16.40;1.00
16154;DHT22;8182;55.648;13.208;2024-02-26T10:46:53;16.90;1.00
16154;DHT22;8182;55.648;13.208;2024-02-26T10:49:20;16.80;1.00
16154;DHT22;8182;55.648;13.208;2024-02-26T10:51:54;17.10;1.00
16154;DHT22;8182;55.648;13.208;2024-02-26T10:54:29;17.10;1.00
16154;DHT22;8182;55.648;13.208;2024-02-26T10:56:56;16.90;1.00
16154;DHT22;8182;55.648;13.208;2024-02-26T10:59:24;16.70;1.00
16154;DHT22;8182;55.648;13.208;2024-02-26T11:01:54;17.10;1.00
16154;DHT22;8182;55.648;13.208;2024-02-26T11:04:22;17.10;1.00
16154;DHT22;8182;55.648;13.208;2024-02-26T11:06:50;16.00;1.00
16154;DHT22;8182;55.648;13.208;2024-02-26T11:09:17;15.30;1.00
16154;DHT22;8182;55.648;13.208;2024-02-26T11:11:50;14.30;1.00
16154;DHT22;8182;55.648;13.208;2024-02-26T11:14:20;16.10;1.00
16154;DHT22;8182;55.648;13.208;2024-02-26T11:16:51;16.80;1.00
16154;DHT22;8182;55.648;13.208;2024-02-26T11:19:18;14.60;1.00
16154;DHT22;8182;55.648;13.208;2024-02-26T11:21:46;14.20;1.00
16154;DHT22;8182;55.648;13.208;2024-02-26T11:24:15;13.50;1.00
16154;DHT22;8182;55.648;13.208;2024-02-26T11:26:46;12.40;1.00
16154;DHT22;8182;55.648;13.208;2024-02-26T11:29:20;12.30;1.00
16154;DHT22;8182;55.648;13.208;2024-02-26T11:31:48;11.90;1.00
16154;DHT22;8182;55.648;13.208;2024-02-26T11:34:17;12.30;1.00
16154;DHT22;8182;55.648;13.208;2024-02-26T11:36:44;11.50;1.00
16154;DHT22;8182;55.648;13.208;2024-02-26T11:39:15;11.10;1.00
16154;DHT22;8182;55.648;13.208;2024-02-26T11:41:44;11.00;1.00
16154;DHT22;8182;55.648;13.208;2024-02-26T11:44:11;11.00;1.00
16154;DHT22;8182;55.648;13.208;2024-02-26T11:46:41;10.80;1.00
16154;DHT22;8182;55.648;13.208;2024-02-26T11:49:32;10.50;1.00
16154;DHT22;8182;55.648;13.208;2024-02-26T11:52:00;10.90;1.00
16154;DHT22;8182;55.648;13.208;2024-02-26T11:54:39;10.80;1.00
16154;DHT22;8182;55.648;13.208;2024-02-26T11:57:20;10.90;1.00
16154;DHT22;8182;55.648;13.208;2024-02-26T11:59:48;10.30;1.00
16154;DHT22;8182;55.648;13.208;2024-02-26T12:02:43;9.90;1.00
16154;DHT22;8182;55.648;13.208;2024-02-26T12:05:12;9.90;1.00
16154;DHT22;8182;55.648;13.208;2024-02-26T12:07:46;9.60;1.00
16154;DHT22;8182;55.648;13.208;2024-02-26T12:10:24;9.70;1.00
16154;DHT22;8182;55.648;13.208;2024-02-26T12:13:03;9.70;1.00
16154;DHT22;8182;55.648;13.208;2024-02-26T12:15:32;9.80;1.00
16154;DHT22;8182;55.648;13.208;2024-02-26T12:18:02;9.60;1.00
16154;DHT22;8182;55.648;13.208;2024-02-26T12:20:30;9.80;1.00
16154;DHT22;8182;55.648;13.208;2024-02-26T12:22:57;10.40;1.00
16154;DHT22;8182;55.648;13.208;2024-02-26T12:25:25;10.20;1.00
16154;DHT22;8182;55.648;13.208;2024-02-26T12:27:53;10.10;1.00
16154;DHT22;8182;55.648;13.208;2024-02-26T12:30:20;10.40;1.00
16154;DHT22;8182;55.648;13.208;2024-02-26T12:32:47;10.50;1.00
16154;DHT22;8182;55.648;13.208;2024-02-26T12:35:16;10.10;1.00
16154;DHT22;8182;55.648;13.208;2024-02-26T12:37:44;9.90;1.00
16154;DHT22;8182;55.648;13.208;2024-02-26T12:40:11;10.10;1.00
16154;DHT22;8182;55.648;13.208;2024-02-26T12:42:45;9.70;1.00
16154;DHT22;8182;55.648;13.208;2024-02-26T12:45:13;9.50;1.00
16154;DHT22;8182;55.648;13.208;2024-02-26T12:47:45;9.70;1.00
16154;DHT22;8182;55.648;13.208;2024-02-26T12:50:17;9.60;1.00
16154;DHT22;8182;55.648;13.208;2024-02-26T12:52:45;9.40;1.00
16154;DHT22;8182;55.648;13.208;2024-02-26T12:55:17;9.30;1.00
16154;DHT22;8182;55.648;13.208;2024-02-26T12:57:45;9.50;1.00
16154;DHT22;8182;55.648;13.208;2024-02-26T13:00:16;9.50;1.00
16154;DHT22;8182;55.648;13.208;2024-02-26T13:02:44;9.30;1.00
16154;DHT22;8182;55.648;13.208;2024-02-26T13:05:13;9.30;1.00
16154;DHT22;8182;55.648;13.208;2024-02-26T13:07:47;9.30;1.00
16154;DHT22;8182;55.648;13.208;2024-02-26T13:10:14;9.40;1.00
16154;DHT22;8182;55.648;13.208;2024-02-26T13:12:48;9.40;1.00
16154;DHT22;8182;55.648;13.208;2024-02-26T13:15:16;9.50;1.00
16154;DHT22;8182;55.648;13.208;2024-02-26T13:17:43;9.50;1.00
16154;DHT22;8182;55.648;13.208;2024-02-26T13:20:11;9.60;1.00
16154;DHT22;8182;55.648;13.208;2024-02-26T13:22:44;9.70;1.00
16154;DHT22;8182;55.648;13.208;2024-02-26T13:25:13;9.60;1.00
16154;DHT22;8182;55.648;13.208;2024-02-26T13:27:46;9.80;1.00
16154;DHT22;8182;55.648;13.208;2024-02-26T13:30:13;9.90;1.00
16154;DHT22;8182;55.648;13.208;2024-02-26T13:32:40;10.00;1.00
16154;DHT22;8182;55.648;13.208;2024-02-26T13:35:09;10.00;1.00
16154;DHT22;8182;55.648;13.208;2024-02-26T13:37:37;9.90;1.00
16154;DHT22;8182;55.648;13.208;2024-02-26T13:40:07;10.00;1.00
16154;DHT22;8182;55.648;13.208;2024-02-26T13:42:35;9.90;1.00
16154;DHT22;8182;55.648;13.208;2024-02-26T13:45:02;10.10;1.00
16154;DHT22;8182;55.648;13.208;2024-02-26T13:47:32;10.00;1.00
16154;DHT22;8182;55.648;13.208;2024-02-26T13:49:58;9.90;1.00
16154;DHT22;8182;55.648;13.208;2024-02-26T13:52:26;9.80;1.00
16154;DHT22;8182;55.648;13.208;2024-02-26T13:54:53;9.70;1.00
16154;DHT22;8182;55.648;13.208;2024-02-26T13:57:21;9.60;1.00
16154;DHT22;8182;55.648;13.208;2024-02-26T13:59:48;9.70;1.00
16154;DHT22;8182;55.648;13.208;2024-02-26T14:02:16;9.80;1.00
16154;DHT22;8182;55.648;13.208;2024-02-26T14:04:43;9.60;1.00
16154;DHT22;8182;55.648;13.208;2024-02-26T14:07:11;9.60;1.00
16154;DHT22;8182;55.648;13.208;2024-02-26T14:09:45;9.50;1.00
16154;DHT22;8182;55.648;13.208;2024-02-26T14:12:15;9.60;1.00
16154;DHT22;8182;55.648;13.208;2024-02-26T14:14:43;9.60;1.00
16154;DHT22;8182;55.648;13.208;2024-02-26T14:17:11;9.70;1.00
16154;DHT22;8182;55.648;13.208;2024-02-26T14:19:39;9.50;1.00
16154;DHT22;8182;55.648;13.208;2024-02-26T14:22:10;9.40;1.00
16154;DHT22;8182;55.648;13.208;2024-02-26T14:24:40;9.20;1.00
16154;DHT22;8182;55.648;13.208;2024-02-26T14:27:08;9.20;1.00
16154;DHT22;8182;55.648;13.208;2024-02-26T14:29:35;9.10;1.00
16154;DHT22;8182;55.648;13.208;2024-02-26T14:32:04;9.10;1.00
16154;DHT22;8182;55.648;13.208;2024-02-26T14:34:31;9.10;1.00
16154;DHT22;8182;55.648;13.208;2024-02-26T14:36:58;9.20;1.00
16154;DHT22;8182;55.648;13.208;2024-02-26T14:39:25;9.30;1.00
16154;DHT22;8182;55.648;13.208;2024-02-26T14:41:52;9.10;1.00
16154;DHT22;8182;55.648;13.208;2024-02-26T14:44:19;8.90;1.00
16154;DHT22;8182;55.648;13.208;2024-02-26T14:46:46;8.80;1.00
16154;DHT22;8182;55.648;13.208;2024-02-26T14:49:17;8.80;1.00
16154;DHT22;8182;55.648;13.208;2024-02-26T14:51:44;8.80;1.00
16154;DHT22;8182;55.648;13.208;2024-02-26T14:54:12;8.80;1.00
16154;DHT22;8182;55.648;13.208;2024-02-26T14:56:41;8.80;1.00
16154;DHT22;8182;55.648;13.208;2024-02-26T14:59:08;8.80;1.00
16154;DHT22;8182;55.648;13.208;2024-02-26T15:01:35;8.60;1.00
16154;DHT22;8182;55.648;13.208;2024-02-26T15:04:02;8.50;1.00
16154;DHT22;8182;55.648;13.208;2024-02-26T15:06:30;8.60;1.00
16154;DHT22;8182;55.648;13.208;2024-02-26T15:08:57;8.50;1.00
16154;DHT22;8182;55.648;13.208;2024-02-26T15:11:24;8.70;1.00
16154;DHT22;8182;55.648;13.208;2024-02-26T15:13:52;8.70;1.00
16154;DHT22;8182;55.648;13.208;2024-02-26T15:16:19;8.70;1.00
16154;DHT22;8182;55.648;13.208;2024-02-26T15:18:47;8.50;1.00
16154;DHT22;8182;55.648;13.208;2024-02-26T15:21:17;8.50;1.00
16154;DHT22;8182;55.648;13.208;2024-02-26T15:23:45;8.40;1.00
16154;DHT22;8182;55.648;13.208;2024-02-26T15:26:15;8.40;1.00
16154;DHT22;8182;55.648;13.208;2024-02-26T15:28:45;8.30;1.00
16154;DHT22;8182;55.648;13.208;2024-02-26T15:31:16;8.20;1.00
16154;DHT22;8182;55.648;13.208;2024-02-26T15:33:43;8.20;1.00
16154;DHT22;8182;55.648;13.208;2024-02-26T15:36:10;8.10;1.00
16154;DHT22;8182;55.648;13.208;2024-02-26T15:38:37;8.00;1.00
16154;DHT22;8182;55.648;13.208;2024-02-26T15:41:10;7.90;1.00
16154;DHT22;8182;55.648;13.208;2024-02-26T15:43:46;7.90;1.00
16154;DHT22;8182;55.648;13.208;2024-02-26T15:46:13;7.90;1.00
16154;DHT22;8182;55.648;13.208;2024-02-26T15:48:40;7.90;1.00
16154;DHT22;8182;55.648;13.208;2024-02-26T15:51:07;7.90;1.00
16154;DHT22;8182;55.648;13.208;2024-02-26T15:53:34;7.90;1.00
16154;DHT22;8182;55.648;13.208;2024-02-26T15:56:00;7.80;1.00
16154;DHT22;8182;55.648;13.208;2024-02-26T15:58:28;7.60;1.00
16154;DHT22;8182;55.648;13.208;2024-02-26T16:00:55;7.40;1.00
16154;DHT22;8182;55.648;13.208;2024-02-26T16:03:22;7.40;1.00
16154;DHT22;8182;55.648;13.208;2024-02-26T16:05:49;7.20;1.00
16154;DHT22;8182;55.648;13.208;2024-02-26T16:08:18;7.20;1.00